createdAt,value
2023-04-26T00:01:15.688Z,7.90
2023-04-26T00:04:12.241Z,7.80
2023-04-26T00:07:01.260Z,7.70
2023-04-26T00:09:52.782Z,7.60
2023-04-26T00:12:32.752Z,7.60
2023-04-26T00:15:19.544Z,7.50
2023-04-26T00:17:55.772Z,7.40
2023-04-26T00:20:45.451Z,7.30
2023-04-26T00:23:27.919Z,7.20
2023-04-26T00:26:22.316Z,7.10
2023-04-26T00:28:59.218Z,7.10
2023-04-26T00:31:38.155Z,7.00
2023-04-26T00:34:22.784Z,7.00
2023-04-26T00:36:56.159Z,6.90
2023-04-26T00:40:00.472Z,6.80
2023-04-26T00:43:06.821Z,6.80
2023-04-26T00:45:52.710Z,6.80
2023-04-26T00:48:24.335Z,6.70
2023-04-26T00:51:33.205Z,6.60
2023-04-26T00:54:04.157Z,6.60
2023-04-26T00:56:35.725Z,6.50
2023-04-26T00:59:24.756Z,6.50
2023-04-26T01:01:57.910Z,6.50
2023-04-26T01:04:34.017Z,6.40
2023-04-26T01:07:38.684Z,6.40
2023-04-26T01:10:11.091Z,6.40
2023-04-26T01:12:56.398Z,6.30
2023-04-26T01:15:30.313Z,6.30
2023-04-26T01:18:12.326Z,6.20
2023-04-26T01:21:05.452Z,6.10
2023-04-26T01:24:14.198Z,6.10
2023-04-26T01:26:54.729Z,6.00
2023-04-26T01:29:53.756Z,6.00
2023-04-26T01:32:25.914Z,5.90
2023-04-26T01:35:12.440Z,5.90
2023-04-26T01:37:47.678Z,5.80
2023-04-26T01:40:24.796Z,5.80
2023-04-26T01:43:12.887Z,5.80
2023-04-26T01:45:54.425Z,5.70
2023-04-26T01:48:34.792Z,5.70
2023-04-26T01:51:16.424Z,5.60
2023-04-26T01:53:49.381Z,5.60
2023-04-26T01:56:29.173Z,5.60
2023-04-26T01:59:15.051Z,5.50
2023-04-26T02:02:19.081Z,5.50
2023-04-26T02:04:55.732Z,5.50
2023-04-26T02:07:45.009Z,5.50
2023-04-26T02:10:32.581Z,5.40
2023-04-26T02:13:32.912Z,5.40
2023-04-26T02:16:12.797Z,5.40
2023-04-26T02:19:08.355Z,5.30
2023-04-26T02:21:58.443Z,5.30
2023-04-26T02:24:45.097Z,5.20
2023-04-26T02:27:24.877Z,5.20
2023-04-26T02:30:16.642Z,5.10
2023-04-26T02:32:57.126Z,5.10
2023-04-26T02:35:39.108Z,5.00
2023-04-26T02:38:17.209Z,5.00
2023-04-26T02:41:13.173Z,5.00
2023-04-26T02:44:05.426Z,5.00
2023-04-26T02:47:09.640Z,4.90
2023-04-26T02:49:53.332Z,4.90
2023-04-26T02:52:35.103Z,4.90
2023-04-26T02:55:09.281Z,4.90
2023-04-26T02:57:50.678Z,4.80
2023-04-26T03:00:26.684Z,4.80
2023-04-26T03:03:31.391Z,4.80
2023-04-26T03:06:11.884Z,4.80
2023-04-26T03:08:56.305Z,4.80
2023-04-26T03:11:28.280Z,4.70
2023-04-26T03:13:58.512Z,4.70
2023-04-26T03:16:33.591Z,4.70
2023-04-26T03:19:13.512Z,4.60
2023-04-26T03:21:45.513Z,4.60
2023-04-26T03:24:34.859Z,4.60
2023-04-26T03:27:23.964Z,4.60
2023-04-26T03:29:54.296Z,4.60
2023-04-26T03:32:36.741Z,4.50
2023-04-26T03:35:38.982Z,4.50
2023-04-26T03:38:16.908Z,4.50
2023-04-26T03:40:47.458Z,4.40
2023-04-26T03:43:29.488Z,4.40
2023-04-26T03:46:09.373Z,4.40
2023-04-26T03:48:48.115Z,4.30
2023-04-26T03:51:20.079Z,4.30
2023-04-26T03:53:55.643Z,4.40
2023-04-26T03:56:32.305Z,4.30
2023-04-26T03:59:09.728Z,4.30
2023-04-26T04:02:05.300Z,4.30
2023-04-26T04:04:42.572Z,4.20
2023-04-26T04:07:39.671Z,4.20
2023-04-26T04:10:14.068Z,4.20
2023-04-26T04:12:49.511Z,4.20
2023-04-26T04:15:32.157Z,4.10
2023-04-26T04:18:03.451Z,4.10
2023-04-26T04:20:58.655Z,4.10
2023-04-26T04:23:40.993Z,4.10
2023-04-26T04:26:27.495Z,4.10
2023-04-26T04:29:08.969Z,4.00
2023-04-26T04:32:03.815Z,4.00
2023-04-26T04:34:38.643Z,4.00
2023-04-26T04:37:42.933Z,4.00
2023-04-26T04:40:48.826Z,4.00
2023-04-26T04:43:28.312Z,4.00
2023-04-26T04:45:59.047Z,4.00
2023-04-26T04:48:38.909Z,4.00
2023-04-26T04:51:21.554Z,4.00
2023-04-26T04:54:18.518Z,4.00
2023-04-26T04:57:04.198Z,4.10
2023-04-26T04:59:39.508Z,4.10
2023-04-26T05:02:23.989Z,4.10
2023-04-26T05:04:54.251Z,4.20
2023-04-26T05:07:45.653Z,4.20
2023-04-26T05:10:43.610Z,4.20
2023-04-26T05:13:22.256Z,4.30
2023-04-26T05:16:08.804Z,4.30
2023-04-26T05:19:03.836Z,4.40
2023-04-26T05:21:36.521Z,4.50
2023-04-26T05:24:17.706Z,4.50
2023-04-26T05:27:01.613Z,4.60
2023-04-26T05:29:44.846Z,4.70
2023-04-26T05:32:46.570Z,4.80
2023-04-26T05:35:39.073Z,4.90
2023-04-26T05:38:38.852Z,4.90
2023-04-26T05:41:20.240Z,5.00
2023-04-26T05:44:03.567Z,5.10
2023-04-26T05:46:51.107Z,5.10
2023-04-26T05:49:40.621Z,5.20
2023-04-26T05:52:14.144Z,5.30
2023-04-26T05:55:04.493Z,5.40
2023-04-26T05:57:36.489Z,5.50
2023-04-26T06:00:16.179Z,5.60
2023-04-26T06:02:52.570Z,5.60
2023-04-26T06:05:35.610Z,5.70
2023-04-26T06:08:34.693Z,5.80
2023-04-26T06:11:23.735Z,5.90
2023-04-26T06:13:54.727Z,6.00
2023-04-26T06:16:29.665Z,6.10
2023-04-26T06:19:14.389Z,6.10
2023-04-26T06:21:57.546Z,6.20
2023-04-26T06:24:37.921Z,6.30
2023-04-26T06:27:48.508Z,6.40
2023-04-26T06:30:19.402Z,6.50
2023-04-26T06:33:02.075Z,6.60
2023-04-26T06:35:43.348Z,6.70
2023-04-26T06:38:31.939Z,6.80
2023-04-26T06:41:03.031Z,6.90
2023-04-26T06:43:45.014Z,7.00
2023-04-26T06:46:26.539Z,7.10
2023-04-26T06:49:11.511Z,7.20
2023-04-26T06:51:57.413Z,7.30
2023-04-26T06:54:56.121Z,7.40
2023-04-26T06:57:43.630Z,7.50
2023-04-26T07:00:45.331Z,7.60
2023-04-26T07:03:43.185Z,7.80
2023-04-26T07:06:29.572Z,7.90
2023-04-26T07:09:14.346Z,8.00
2023-04-26T07:11:49.660Z,8.10
2023-04-26T07:14:29.237Z,8.30
2023-04-26T07:17:18.298Z,8.40
2023-04-26T07:19:52.803Z,8.50
2023-04-26T07:22:45.932Z,8.70
2023-04-26T07:25:31.410Z,8.90
2023-04-26T07:28:05.147Z,9.10
2023-04-26T07:30:58.185Z,9.30
2023-04-26T07:33:54.029Z,9.40
2023-04-26T07:36:25.445Z,9.60
2023-04-26T07:38:56.531Z,9.80
2023-04-26T07:41:50.837Z,9.90
2023-04-26T07:44:36.169Z,10.00
2023-04-26T07:47:32.100Z,10.20
2023-04-26T07:50:12.346Z,10.30
2023-04-26T07:52:52.168Z,10.30
2023-04-26T07:55:25.692Z,10.40
2023-04-26T07:58:14.889Z,10.50
2023-04-26T08:00:59.495Z,10.60
2023-04-26T08:04:05.821Z,10.70
2023-04-26T08:06:45.340Z,10.80
2023-04-26T08:09:26.151Z,11.00
2023-04-26T08:12:15.084Z,11.10
2023-04-26T08:14:49.896Z,11.20
2023-04-26T08:17:45.445Z,11.30
2023-04-26T08:20:39.229Z,11.40
2023-04-26T08:23:20.204Z,11.50
2023-04-26T08:26:00.765Z,11.60
2023-04-26T08:28:47.607Z,11.70
2023-04-26T08:31:41.509Z,11.80
2023-04-26T08:34:43.091Z,11.90
2023-04-26T08:37:29.334Z,11.90
2023-04-26T08:40:00.420Z,12.00
2023-04-26T08:42:44.750Z,12.10
2023-04-26T08:45:17.984Z,12.20
2023-04-26T08:48:05.120Z,12.30
2023-04-26T08:50:49.995Z,12.40
2023-04-26T08:53:45.888Z,12.50
2023-04-26T08:56:49.012Z,12.60
2023-04-26T08:59:34.747Z,12.60
2023-04-26T09:02:15.148Z,12.80
2023-04-26T09:05:29.132Z,12.90
2023-04-26T09:08:14.014Z,12.90
2023-04-26T09:11:14.298Z,13.00
2023-04-26T09:13:44.696Z,13.00
2023-04-26T09:16:16.788Z,13.10
2023-04-26T09:19:06.745Z,13.10
2023-04-26T09:21:54.689Z,13.20
2023-04-26T09:24:50.944Z,13.30
2023-04-26T09:27:51.563Z,13.30
2023-04-26T09:30:31.705Z,13.40
2023-04-26T09:33:09.882Z,13.50
2023-04-26T09:35:55.097Z,13.60
2023-04-26T09:38:37.575Z,13.70
2023-04-26T09:41:31.144Z,13.70
2023-04-26T09:44:26.940Z,13.80
2023-04-26T09:47:13.010Z,13.90
2023-04-26T09:50:00.684Z,13.90
2023-04-26T09:52:34.001Z,14.00
2023-04-26T09:55:37.456Z,14.00
2023-04-26T09:58:13.454Z,14.00
2023-04-26T10:01:02.738Z,14.00
2023-04-26T10:03:39.924Z,14.00
2023-04-26T10:06:27.625Z,14.00
2023-04-26T10:09:13.473Z,14.00
2023-04-26T10:12:14.668Z,14.00
2023-04-26T10:14:51.371Z,14.00
2023-04-26T10:17:35.981Z,14.00
2023-04-26T10:20:19.849Z,14.10
2023-04-26T10:23:08.277Z,14.20
2023-04-26T10:25:44.980Z,14.30
2023-04-26T10:28:41.846Z,14.40
2023-04-26T10:31:36.993Z,14.40
2023-04-26T10:34:23.289Z,14.50
2023-04-26T10:37:13.596Z,14.50
2023-04-26T10:39:56.788Z,14.40
2023-04-26T10:42:41.499Z,14.50
2023-04-26T10:45:32.112Z,14.40
2023-04-26T10:48:25.478Z,14.50
2023-04-26T10:51:14.705Z,14.50
2023-04-26T10:54:04.639Z,14.50
2023-04-26T10:56:55.996Z,14.60
2023-04-26T10:59:43.384Z,14.50
2023-04-26T11:03:12.207Z,14.60
2023-04-26T11:06:01.086Z,14.60
2023-04-26T11:08:37.013Z,14.50
2023-04-26T11:11:13.805Z,14.40
2023-04-26T11:14:05.325Z,14.40
2023-04-26T11:16:40.531Z,14.30
2023-04-26T11:19:26.124Z,14.30
2023-04-26T11:22:03.750Z,14.30
2023-04-26T11:24:47.808Z,14.20
2023-04-26T11:27:42.211Z,14.30
2023-04-26T11:30:15.396Z,14.30
2023-04-26T11:33:08.695Z,14.30
2023-04-26T11:35:54.619Z,14.30
2023-04-26T11:38:31.734Z,14.40
2023-04-26T11:41:12.553Z,14.40
2023-04-26T11:44:11.259Z,14.40
2023-04-26T11:46:59.804Z,14.50
2023-04-26T11:49:42.329Z,14.50
2023-04-26T11:52:45.959Z,14.70
2023-04-26T11:55:17.784Z,14.90
2023-04-26T11:57:49.338Z,15.10
2023-04-26T12:00:32.768Z,15.20
2023-04-26T12:03:18.951Z,15.40
2023-04-26T12:06:06.331Z,15.50
2023-04-26T12:09:06.819Z,15.60
2023-04-26T12:12:08.177Z,15.70
2023-04-26T12:14:45.800Z,15.70
2023-04-26T12:17:18.058Z,15.80
2023-04-26T12:19:53.397Z,15.80
2023-04-26T12:22:29.570Z,15.80
2023-04-26T12:25:12.970Z,15.80
2023-04-26T12:28:02.242Z,15.90
2023-04-26T12:30:36.752Z,15.90
2023-04-26T12:33:26.908Z,16.00
2023-04-26T12:36:09.042Z,16.00
2023-04-26T12:38:56.867Z,16.10
2023-04-26T12:41:40.132Z,16.20
2023-04-26T12:44:27.528Z,16.30
2023-04-26T12:47:22.382Z,16.30
2023-04-26T12:49:59.360Z,16.30
2023-04-26T12:52:30.811Z,16.40
2023-04-26T12:55:20.420Z,16.50
2023-04-26T12:58:12.524Z,16.60
2023-04-26T13:00:56.459Z,16.70
2023-04-26T13:03:43.918Z,16.90
2023-04-26T13:06:34.556Z,17.20
2023-04-26T13:09:26.368Z,17.50
2023-04-26T13:12:10.871Z,17.90
2023-04-26T13:15:17.738Z,18.30
2023-04-26T13:17:48.655Z,18.70
2023-04-26T13:20:26.664Z,19.00
2023-04-26T13:23:05.338Z,19.20
2023-04-26T13:25:42.377Z,19.30
2023-04-26T13:28:26.080Z,19.40
2023-04-26T13:31:09.416Z,19.60
2023-04-26T13:33:54.555Z,19.70
2023-04-26T13:36:37.348Z,20.00
2023-04-26T13:39:15.150Z,20.20
2023-04-26T13:41:46.978Z,20.40
2023-04-26T13:44:30.197Z,20.50
2023-04-26T13:47:07.079Z,20.50
2023-04-26T13:49:43.139Z,20.50
2023-04-26T13:52:42.738Z,20.40
2023-04-26T13:55:18.582Z,20.40
2023-04-26T13:58:12.003Z,20.30
2023-04-26T14:00:42.921Z,20.10
2023-04-26T14:03:36.394Z,19.90
2023-04-26T14:06:09.121Z,19.70
2023-04-26T14:08:50.531Z,19.50
2023-04-26T14:11:26.484Z,19.20
2023-04-26T14:13:59.418Z,19.00
2023-04-26T14:16:30.262Z,18.80
2023-04-26T14:19:27.750Z,18.70
2023-04-26T14:22:13.667Z,18.50
2023-04-26T14:25:12.725Z,18.40
2023-04-26T14:27:54.775Z,18.20
2023-04-26T14:30:40.423Z,18.20
2023-04-26T14:33:35.194Z,18.20
2023-04-26T14:36:41.229Z,18.20
2023-04-26T14:39:16.533Z,18.20
2023-04-26T14:42:02.238Z,18.20
2023-04-26T14:44:33.530Z,18.30
2023-04-26T14:47:10.381Z,18.40
2023-04-26T14:49:41.706Z,18.50
2023-04-26T14:52:20.450Z,18.70
2023-04-26T14:55:17.428Z,19.00
2023-04-26T14:57:52.715Z,19.30
2023-04-26T15:00:49.057Z,19.60
2023-04-26T15:03:31.585Z,19.90
2023-04-26T15:06:14.724Z,20.40
2023-04-26T15:09:09.181Z,20.90
2023-04-26T15:12:05.183Z,21.70
2023-04-26T15:14:35.827Z,22.60
2023-04-26T15:17:23.359Z,23.40
2023-04-26T15:20:13.220Z,24.20
2023-04-26T15:22:52.387Z,24.80
2023-04-26T15:26:06.296Z,25.20
2023-04-26T15:28:46.531Z,25.40
2023-04-26T15:31:26.405Z,25.40
2023-04-26T15:34:14.513Z,25.70
2023-04-26T15:37:12.535Z,25.90
2023-04-26T15:39:58.567Z,26.30
2023-04-26T15:42:44.471Z,26.70
2023-04-26T15:45:17.583Z,27.10
2023-04-26T15:47:48.830Z,27.50
2023-04-26T15:50:28.253Z,27.80
2023-04-26T15:53:09.830Z,28.10
2023-04-26T15:55:54.972Z,28.30
2023-04-26T15:58:45.650Z,28.60
2023-04-26T16:01:22.449Z,28.60
2023-04-26T16:04:00.429Z,28.40
2023-04-26T16:06:49.368Z,28.10
2023-04-26T16:09:46.327Z,27.70
2023-04-26T16:12:40.107Z,27.50
2023-04-26T16:15:32.067Z,27.30
2023-04-26T16:18:18.648Z,27.20
2023-04-26T16:21:10.273Z,27.10
2023-04-26T16:23:54.136Z,27.10
2023-04-26T16:26:25.564Z,27.20
2023-04-26T16:29:11.740Z,27.30
2023-04-26T16:31:53.152Z,27.30
2023-04-26T16:34:58.685Z,27.30
2023-04-26T16:37:46.139Z,27.40
2023-04-26T16:40:27.603Z,27.40
2023-04-26T16:43:19.136Z,27.30
2023-04-26T16:46:02.657Z,27.40
2023-04-26T16:48:46.415Z,27.60
2023-04-26T16:51:36.560Z,27.70
2023-04-26T16:54:26.522Z,27.90
2023-04-26T16:57:14.471Z,28.00
2023-04-26T16:59:53.864Z,28.10
2023-04-26T17:02:24.808Z,28.10
2023-04-26T17:05:27.331Z,28.10
2023-04-26T17:08:06.330Z,28.20
2023-04-26T17:10:52.117Z,28.20
2023-04-26T17:13:33.309Z,28.00
2023-04-26T17:16:11.699Z,27.70
2023-04-26T17:19:01.197Z,27.10
2023-04-26T17:21:41.368Z,26.30
2023-04-26T17:24:13.276Z,25.50
2023-04-26T17:27:00.898Z,24.70
2023-04-26T17:29:52.829Z,24.00
2023-04-26T17:32:37.893Z,23.30
2023-04-26T17:35:34.356Z,22.60
2023-04-26T17:38:26.319Z,22.10
2023-04-26T17:41:06.746Z,21.60
2023-04-26T17:44:03.743Z,21.10
2023-04-26T17:46:53.694Z,20.50
2023-04-26T17:49:33.526Z,20.10
2023-04-26T17:52:32.565Z,19.60
2023-04-26T17:55:35.478Z,19.00
2023-04-26T17:58:31.588Z,18.50
2023-04-26T18:01:10.129Z,18.00
2023-04-26T18:03:45.002Z,17.60
2023-04-26T18:06:18.430Z,17.20
2023-04-26T18:09:02.850Z,16.90
2023-04-26T18:11:37.925Z,16.60
2023-04-26T18:14:15.397Z,16.20
2023-04-26T18:17:03.919Z,16.00
2023-04-26T18:19:55.905Z,15.70
2023-04-26T18:22:33.156Z,15.40
2023-04-26T18:25:31.316Z,15.30
2023-04-26T18:28:45.336Z,15.00
2023-04-26T18:31:16.415Z,14.80
2023-04-26T18:34:03.512Z,14.60
2023-04-26T18:36:37.298Z,14.40
2023-04-26T18:39:32.191Z,14.30
2023-04-26T18:42:04.834Z,14.20
2023-04-26T18:45:17.549Z,14.00
2023-04-26T18:48:06.749Z,13.90
2023-04-26T18:50:53.113Z,13.70
2023-04-26T18:53:37.337Z,13.60
2023-04-26T18:56:19.051Z,13.50
2023-04-26T18:59:07.498Z,13.30
2023-04-26T19:01:50.735Z,13.20
2023-04-26T19:04:44.107Z,13.10
2023-04-26T19:07:39.647Z,13.00
2023-04-26T19:10:22.341Z,12.90
2023-04-26T19:13:12.975Z,12.80
2023-04-26T19:15:55.585Z,12.70
2023-04-26T19:18:38.436Z,12.70
2023-04-26T19:21:17.144Z,12.60
2023-04-26T19:23:49.009Z,12.50
2023-04-26T19:26:24.822Z,12.40
2023-04-26T19:28:55.995Z,12.30
2023-04-26T19:31:31.967Z,12.20
2023-04-26T19:34:06.368Z,12.10
2023-04-26T19:36:40.860Z,12.00
2023-04-26T19:39:23.966Z,11.90
2023-04-26T19:42:06.674Z,11.90
2023-04-26T19:44:56.904Z,11.90
2023-04-26T19:47:44.520Z,11.90
2023-04-26T19:50:40.268Z,11.90
2023-04-26T19:53:28.048Z,11.90
2023-04-26T19:56:13.584Z,11.80
2023-04-26T19:58:53.373Z,11.80
2023-04-26T20:01:39.939Z,11.80
2023-04-26T20:04:11.056Z,11.70
2023-04-26T20:07:01.009Z,11.70
2023-04-26T20:09:32.974Z,11.60
2023-04-26T20:12:34.072Z,11.60
2023-04-26T20:15:14.284Z,11.60
2023-04-26T20:17:58.474Z,11.50
2023-04-26T20:20:29.001Z,11.50
2023-04-26T20:23:22.959Z,11.50
2023-04-26T20:26:17.198Z,11.40
2023-04-26T20:29:06.555Z,11.40
2023-04-26T20:31:45.598Z,11.30
2023-04-26T20:34:26.340Z,11.30
2023-04-26T20:37:10.602Z,11.30
2023-04-26T20:40:02.892Z,11.30
2023-04-26T20:42:33.995Z,11.20
2023-04-26T20:45:25.679Z,11.20
2023-04-26T20:47:58.545Z,11.10
2023-04-26T20:50:45.162Z,11.10
2023-04-26T20:53:24.472Z,11.10
2023-04-26T20:56:17.900Z,11.00
2023-04-26T20:58:53.244Z,11.00
2023-04-26T21:01:34.154Z,10.90
2023-04-26T21:04:14.620Z,10.80
2023-04-26T21:06:45.258Z,10.80
2023-04-26T21:09:46.289Z,10.70
2023-04-26T21:13:01.619Z,10.70
2023-04-26T21:15:48.633Z,10.60
2023-04-26T21:18:31.508Z,10.60
2023-04-26T21:21:03.578Z,10.60
2023-04-26T21:23:44.274Z,10.60
2023-04-26T21:26:27.123Z,10.60
2023-04-26T21:29:17.399Z,10.50
2023-04-26T21:32:00.328Z,10.50
2023-04-26T21:34:37.140Z,10.40
2023-04-26T21:37:11.471Z,10.30
2023-04-26T21:40:07.669Z,10.20
2023-04-26T21:42:38.600Z,10.20
2023-04-26T21:45:40.840Z,10.10
2023-04-26T21:48:31.078Z,10.10
2023-04-26T21:51:17.098Z,10.00
2023-04-26T21:54:02.830Z,9.90
2023-04-26T21:56:38.295Z,9.80
2023-04-26T21:59:19.426Z,9.70
2023-04-26T22:02:04.530Z,9.60
2023-04-26T22:04:41.427Z,9.60
2023-04-26T22:07:25.021Z,9.50
2023-04-26T22:09:58.134Z,9.50
2023-04-26T22:12:28.094Z,9.40
2023-04-26T22:15:05.424Z,9.30
2023-04-26T22:17:45.736Z,9.30
2023-04-26T22:20:29.536Z,9.20
2023-04-26T22:23:01.053Z,9.10
2023-04-26T22:25:32.090Z,9.10
2023-04-26T22:28:21.258Z,9.10
2023-04-26T22:30:58.396Z,9.00
2023-04-26T22:33:57.131Z,8.90
2023-04-26T22:36:28.945Z,8.90
2023-04-26T22:39:16.569Z,8.80
2023-04-26T22:41:53.211Z,8.70
2023-04-26T22:44:41.548Z,8.70
2023-04-26T22:47:24.851Z,8.60
2023-04-26T22:50:44.388Z,8.50
2023-04-26T22:53:19.666Z,8.50
2023-04-26T22:56:10.540Z,8.40
2023-04-26T22:58:50.897Z,8.30
2023-04-26T23:01:32.472Z,8.20
2023-04-26T23:04:05.653Z,8.20
2023-04-26T23:07:06.354Z,8.10
2023-04-26T23:09:41.443Z,8.10
2023-04-26T23:12:14.060Z,8.00
2023-04-26T23:14:57.787Z,8.00
2023-04-26T23:17:38.548Z,7.90
2023-04-26T23:20:18.703Z,7.90
2023-04-26T23:22:52.345Z,7.90
2023-04-26T23:25:29.070Z,7.90
2023-04-26T23:28:10.284Z,7.90
2023-04-26T23:30:53.114Z,7.90
2023-04-26T23:33:24.433Z,7.80
2023-04-26T23:35:58.509Z,7.70
2023-04-26T23:39:05.097Z,7.70
2023-04-26T23:41:37.134Z,7.70
2023-04-26T23:44:11.053Z,7.60
2023-04-26T23:46:58.062Z,7.60
2023-04-26T23:49:35.251Z,7.50
2023-04-26T23:52:18.871Z,7.50
2023-04-26T23:54:59.408Z,7.50
2023-04-26T23:57:55.267Z,7.40
